Time;durP1;ratioP1;P1;durP2;ratioP2;P2;SDS_P1;SDS_P2;PMS_P1;PMS_P2;Temp;Humidity;BMP_temperature;BMP_pressure;BME280_temperature;BME280_humidity;BME280_pressure;Samples;Min_cycle;Max_cycle;Signal;HPM_P1;HPM_P2
2023/10/16 00:01:19;;;;;;;2.70;1.35;;;;;;;8.11;100.00;102188.69;5036861;28;20040;-85
2023/10/16 00:03:44;;;;;;;4.65;1.20;;;;;;;8.18;100.00;102196.53;5034266;28;20021;-85
2023/10/16 00:06:17;;;;;;;3.38;1.52;;;;;;;8.16;100.00;102182.94;5028840;28;20090;-84
2023/10/16 00:08:48;;;;;;;2.83;1.40;;;;;;;8.22;100.00;102192.78;5034557;28;20191;-85
2023/10/16 00:11:16;;;;;;;1.45;1.08;;;;;;;8.17;100.00;102183.75;5042844;28;20029;-85
2023/10/16 00:13:44;;;;;;;4.57;1.63;;;;;;;8.17;100.00;102187.38;5020329;28;20029;-85
2023/10/16 00:16:15;;;;;;;2.83;1.65;;;;;;;8.13;100.00;102189.16;5020763;28;20037;-84
2023/10/16 00:18:40;;;;;;;2.53;1.60;;;;;;;8.10;100.00;102187.06;5023054;28;20144;-84
2023/10/16 00:21:06;;;;;;;3.88;1.70;;;;;;;8.18;100.00;102191.81;5031994;28;20546;-84
2023/10/16 00:23:37;;;;;;;4.82;2.05;;;;;;;7.98;100.00;102187.69;5026708;28;20132;-84
2023/10/16 00:26:03;;;;;;;3.10;1.50;;;;;;;7.87;100.00;102181.63;5025435;28;20036;-84
2023/10/16 00:28:30;;;;;;;2.53;1.80;;;;;;;7.95;100.00;102174.44;5028134;28;20021;-85
2023/10/16 00:30:55;;;;;;;2.70;1.73;;;;;;;7.96;100.00;102183.59;5040375;28;20086;-84
2023/10/16 00:33:21;;;;;;;4.28;2.00;;;;;;;8.08;100.00;102187.38;5019609;28;20025;-86
2023/10/16 00:35:50;;;;;;;7.25;2.75;;;;;;;8.13;100.00;102187.19;5032186;28;20063;-84
2023/10/16 00:38:19;;;;;;;4.38;2.30;;;;;;;8.16;100.00;102185.75;5018628;28;20036;-85
2023/10/16 00:40:51;;;;;;;3.67;2.67;;;;;;;7.73;100.00;102186.53;5021245;28;20047;-85
2023/10/16 00:43:21;;;;;;;2.95;2.03;;;;;;;7.99;100.00;102188.50;5038488;28;20397;-85
2023/10/16 00:45:59;;;;;;;5.63;3.20;;;;;;;8.02;100.00;102193.44;5039635;28;20087;-85
2023/10/16 00:48:26;;;;;;;5.15;1.85;;;;;;;8.10;100.00;102189.84;5025919;28;20065;-85
2023/10/16 00:50:52;;;;;;;6.95;2.17;;;;;;;8.12;100.00;102180.00;5024966;28;20514;-85
2023/10/16 00:53:27;;;;;;;5.82;2.30;;;;;;;8.02;100.00;102187.88;5024305;28;20060;-85
2023/10/16 00:55:55;;;;;;;6.10;2.67;;;;;;;8.00;100.00;102190.16;5039743;28;20048;-85
2023/10/16 00:58:21;;;;;;;3.25;2.08;;;;;;;7.90;100.00;102178.19;5035592;28;20035;-85
2023/10/16 01:00:48;;;;;;;5.45;1.75;;;;;;;7.77;100.00;102193.09;5041831;28;20429;-85
2023/10/16 01:03:14;;;;;;;3.53;1.70;;;;;;;7.67;100.00;102199.00;5035886;28;20029;-84
2023/10/16 01:05:42;;;;;;;5.95;2.38;;;;;;;7.94;100.00;102204.25;5026748;28;20021;-83
2023/10/16 01:08:10;;;;;;;5.05;2.05;;;;;;;7.96;100.00;102201.16;5023600;28;20486;-84
2023/10/16 01:10:43;;;;;;;3.13;1.85;;;;;;;8.04;100.00;102202.31;5025562;28;20059;-84
2023/10/16 01:13:12;;;;;;;2.28;1.83;;;;;;;8.17;100.00;102198.53;5028949;28;20027;-84
2023/10/16 01:15:46;;;;;;;2.10;1.75;;;;;;;8.00;100.00;102201.31;5024879;28;20541;-84
2023/10/16 01:18:14;;;;;;;2.33;1.33;;;;;;;8.03;100.00;102203.44;5031674;28;20033;-84
2023/10/16 01:20:43;;;;;;;2.83;2.05;;;;;;;7.96;100.00;102201.16;5020753;28;20033;-84
2023/10/16 01:23:08;;;;;;;4.32;2.60;;;;;;;8.09;100.00;102204.91;5021278;28;20729;-84
2023/10/16 01:25:33;;;;;;;4.22;2.15;;;;;;;7.86;100.00;102196.75;5041710;28;20032;-84
2023/10/16 01:27:59;;;;;;;3.30;1.55;;;;;;;7.95;100.00;102185.59;5022504;28;20116;-84
2023/10/16 01:30:24;;;;;;;4.20;1.90;;;;;;;7.98;100.00;102187.69;5014911;28;20475;-84
2023/10/16 01:32:50;;;;;;;6.80;1.90;;;;;;;7.93;100.00;102188.69;5043471;28;20025;-84
2023/10/16 01:35:18;;;;;;;4.22;1.85;;;;;;;8.04;100.00;102185.56;5023604;28;20033;-84
2023/10/16 01:37:46;;;;;;;2.63;1.70;;;;;;;8.06;100.00;102177.69;5021108;28;20466;-84
2023/10/16 01:40:25;;;;;;;3.67;1.45;;;;;;;8.08;100.00;102173.44;5021762;28;20116;-84
2023/10/16 01:42:53;;;;;;;4.25;1.92;;;;;;;7.88;100.00;102177.69;5043035;28;20044;-84
2023/10/16 01:45:23;;;;;;;5.72;1.30;;;;;;;8.01;100.00;102169.50;5029313;28;20021;-84
2023/10/16 01:47:48;;;;;;;5.78;1.75;;;;;;;7.85;100.00;102177.53;5041868;28;20479;-84
2023/10/16 01:50:25;;;;;;;5.95;2.50;;;;;;;7.86;100.00;102181.97;5046491;28;20037;-84
2023/10/16 01:52:54;;;;;;;5.22;1.90;;;;;;;7.89;100.00;102172.97;5026898;28;20036;-84
2023/10/16 01:55:20;;;;;;;5.57;1.60;;;;;;;8.00;100.00;102179.03;5035556;28;20056;-84
2023/10/16 01:57:47;;;;;;;2.65;1.73;;;;;;;7.82;100.00;102162.31;5043902;28;20029;-84
2023/10/16 02:00:17;;;;;;;7.13;2.65;;;;;;;7.99;100.00;102174.56;5022374;28;20575;-84
2023/10/16 02:02:45;;;;;;;7.18;1.95;;;;;;;8.00;100.00;102173.44;5029947;28;20025;-84
2023/10/16 02:05:11;;;;;;;2.90;1.75;;;;;;;7.92;100.00;102175.88;5032245;28;20111;-84
2023/10/16 02:07:41;;;;;;;3.05;1.83;;;;;;;7.92;100.00;102173.09;5017849;28;20095;-84
2023/10/16 02:10:12;;;;;;;6.38;1.83;;;;;;;7.91;100.00;102179.84;5027478;28;20053;-84
2023/10/16 02:12:38;;;;;;;1.33;1.20;;;;;;;8.06;100.00;102172.13;5025842;28;20029;-84
2023/10/16 02:15:06;;;;;;;5.65;1.52;;;;;;;8.06;100.00;102160.97;5042745;28;20025;-84
2023/10/16 02:17:32;;;;;;;3.60;1.80;;;;;;;7.92;100.00;102167.53;5042873;28;20394;-84
2023/10/16 02:19:57;;;;;;;3.08;1.58;;;;;;;8.02;100.00;102171.16;5039573;28;20037;-83
2023/10/16 02:22:23;;;;;;;3.22;1.45;;;;;;;7.97;100.00;102171.28;5039711;28;20093;-83
2023/10/16 02:24:51;;;;;;;2.72;1.60;;;;;;;8.05;100.00;102164.91;5039197;28;20176;-84
2023/10/16 02:27:18;;;;;;;5.78;1.42;;;;;;;7.87;100.00;102166.88;5021564;28;20025;-83
2023/10/16 02:29:52;;;;;;;5.03;1.77;;;;;;;7.97;100.00;102172.13;5033114;28;20060;-84
2023/10/16 02:32:18;;;;;;;4.38;1.60;;;;;;;7.85;100.00;102177.53;5022089;28;20135;-84
2023/10/16 02:34:43;;;;;;;7.15;2.42;;;;;;;7.91;100.00;102177.03;5035731;28;20694;-84
2023/10/16 02:37:14;;;;;;;2.05;1.83;;;;;;;7.93;100.00;102171.97;5039006;28;20033;-85
2023/10/16 02:39:41;;;;;;;3.53;1.33;;;;;;;7.91;100.00;102170.66;5023735;28;20402;-84
2023/10/16 02:42:12;;;;;;;3.22;1.10;;;;;;;8.03;100.00;102183.94;5042047;28;20471;-84
2023/10/16 02:44:42;;;;;;;2.33;1.17;;;;;;;7.97;100.00;102188.03;5038673;28;20136;-85
2023/10/16 02:47:09;;;;;;;5.28;1.70;;;;;;;8.03;100.00;102192.28;5022989;28;20033;-85
2023/10/16 02:49:35;;;;;;;5.72;1.63;;;;;;;8.01;100.00;102187.06;5042564;28;20059;-85
2023/10/16 02:52:00;;;;;;;3.63;1.45;;;;;;;7.81;100.00;102176.56;5020340;28;20034;-85
2023/10/16 02:54:26;;;;;;;2.67;1.27;;;;;;;7.99;100.00;102188.50;5021475;28;20505;-85
2023/10/16 02:56:59;;;;;;;2.60;1.58;;;;;;;7.99;100.00;102174.56;5025117;28;20164;-85
2023/10/16 02:59:25;;;;;;;3.13;1.45;;;;;;;7.78;100.00;102166.88;5041390;28;20025;-85
2023/10/16 03:01:52;;;;;;;4.88;1.63;;;;;;;7.78;100.00;102169.69;5020177;28;20032;-84
2023/10/16 03:04:18;;;;;;;3.92;1.60;;;;;;;7.81;100.00;102173.78;5019676;28;20056;-84
2023/10/16 03:06:43;;;;;;;2.42;1.30;;;;;;;8.03;100.00;102167.19;5044135;28;20487;-84
2023/10/16 03:09:28;;;;;;;7.43;2.65;;;;;;;7.97;100.00;102157.34;5046435;28;20083;-84
2023/10/16 03:12:09;;;;;;;2.50;1.75;;;;;;;7.99;100.00;102171.78;5041318;28;20036;-84
2023/10/16 03:19:55;;;;;;;4.85;1.40;;;;;;;8.04;100.00;102164.09;5041980;28;20031;-85
2023/10/16 03:22:22;;;;;;;4.15;1.63;;;;;;;7.87;100.00;102158.53;5020069;28;20017;-84
2023/10/16 03:24:47;;;;;;;2.67;1.40;;;;;;;7.95;100.00;102166.06;5018727;28;20033;-84
2023/10/16 03:27:27;;;;;;;2.70;1.30;;;;;;;7.85;100.00;102161.63;5041218;28;20029;-83
2023/10/16 03:29:54;;;;;;;3.08;1.30;;;;;;;7.91;100.00;102165.91;5014247;28;20029;-84
2023/10/16 03:32:20;;;;;;;2.63;1.55;;;;;;;7.97;100.00;102158.19;5040851;28;20541;-84
2023/10/16 03:34:45;;;;;;;2.45;1.80;;;;;;;7.86;100.00;102151.28;5039580;28;20032;-84
2023/10/16 03:37:10;;;;;;;4.10;1.52;;;;;;;8.05;100.00;102139.81;5044008;28;20490;-84
2023/10/16 03:39:36;;;;;;;7.10;2.15;;;;;;;8.05;100.00;102153.75;5023435;28;20045;-84
2023/10/16 03:42:01;;;;;;;6.72;2.53;;;;;;;7.97;100.00;102149.00;5041576;28;20033;-84
2023/10/16 03:44:27;;;;;;;4.13;1.52;;;;;;;7.94;100.00;102154.06;5041685;28;20036;-84
2023/10/16 03:46:55;;;;;;;7.60;2.25;;;;;;;7.91;100.00;102148.34;5028138;28;20032;-84
2023/10/16 03:49:21;;;;;;;3.22;1.98;;;;;;;7.94;100.00;102159.66;5026456;28;20110;-84
2023/10/16 03:51:48;;;;;;;3.90;1.48;;;;;;;8.03;100.00;102156.03;5021334;28;20042;-83
2023/10/16 03:54:16;;;;;;;3.55;1.60;;;;;;;8.08;100.00;102153.09;5013806;28;20034;-84
2023/10/16 03:56:41;;;;;;;6.90;1.85;;;;;;;8.10;100.00;102156.38;5014209;28;20034;-84
2023/10/16 03:59:07;;;;;;;2.33;1.50;;;;;;;8.13;100.00;102162.09;5023784;28;20099;-83
2023/10/16 04:01:37;;;;;;;6.45;1.80;;;;;;;7.90;100.00;102158.66;5012222;28;20103;-84
2023/10/16 04:04:06;;;;;;;3.10;1.45;;;;;;;8.07;100.00;102151.44;5021534;28;20553;-84
2023/10/16 04:06:35;;;;;;;2.40;1.83;;;;;;;8.07;100.00;102157.03;5016107;28;20021;-84
2023/10/16 04:09:04;;;;;;;2.83;1.48;;;;;;;8.01;100.00;102158.34;5021918;28;20038;-84
2023/10/16 04:11:32;;;;;;;2.72;1.50;;;;;;;8.08;100.00;102153.09;5018814;28;20449;-84
2023/10/16 04:13:58;;;;;;;3.47;1.75;;;;;;;7.92;100.00;102148.00;5025438;28;20037;-84
2023/10/16 04:29:49;;;;;;;4.68;1.40;;;;;;;8.03;100.00;102133.72;5017717;28;20029;-84
2023/10/16 04:32:37;;;;;;;5.32;1.25;;;;;;;8.08;100.00;102139.16;5015669;28;20431;-84
2023/10/16 04:38:27;;;;;;;5.25;1.40;;;;;;;7.90;100.00;102133.56;5016956;28;20122;-84
2023/10/16 04:43:49;;;;;;;4.07;1.30;;;;;;;8.12;100.00;102134.56;5016948;28;20048;-84
2023/10/16 04:46:23;;;;;;;2.05;1.40;;;;;;;7.91;100.00;102126.88;5015597;28;20059;-84
2023/10/16 04:48:48;;;;;;;3.28;1.55;;;;;;;7.99;100.00;102128.00;5026290;28;20036;-84
2023/10/16 04:51:22;;;;;;;7.32;1.63;;;;;;;8.14;100.00;102124.72;5034955;28;20048;-84
2023/10/16 04:53:58;;;;;;;1.95;1.48;;;;;;;8.10;100.00;102112.56;5019342;28;20033;-84
2023/10/16 04:56:57;;;;;;;1.50;1.40;;;;;;;8.11;100.00;102118.97;5039465;28;20056;-84
2023/10/16 05:02:33;;;;;;;3.55;1.50;;;;;;;8.27;100.00;102108.13;5039004;28;20395;-84
2023/10/16 05:07:46;;;;;;;1.80;1.42;;;;;;;8.37;100.00;102115.28;5038750;28;20525;-84
2023/10/16 05:10:17;;;;;;;3.80;1.63;;;;;;;8.31;100.00;102117.47;5039714;28;20139;-84
2023/10/16 05:15:51;;;;;;;3.65;1.50;;;;;;;8.04;100.00;102118.66;5039771;28;20079;-83
2023/10/16 05:19:02;;;;;;;1.92;1.23;;;;;;;8.09;100.00;102108.13;5017492;28;20398;-84
2023/10/16 06:16:17;;;;;;;2.38;2.17;;;;;;;8.26;100.00;102137.94;5043448;28;20083;-88
2023/10/16 06:18:46;;;;;;;2.72;1.58;;;;;;;8.38;100.00;102133.69;5042787;28;20522;-89
2023/10/16 06:21:15;;;;;;;3.97;1.67;;;;;;;8.21;100.00;102131.75;5029799;28;20032;-89
2023/10/16 06:23:49;;;;;;;4.90;1.80;;;;;;;8.31;100.00;102131.41;5022276;28;20502;-88
2023/10/16 06:26:16;;;;;;;4.43;1.85;;;;;;;8.31;100.00;102131.41;5027013;28;20060;-88
2023/10/16 06:28:49;;;;;;;3.50;1.85;;;;;;;8.22;100.00;102119.44;5028307;28;20095;-87
2023/10/16 06:31:24;;;;;;;3.88;1.95;;;;;;;8.30;100.00;102118.59;5022921;28;20068;-87
2023/10/16 06:33:56;;;;;;;5.22;1.77;;;;;;;8.31;100.00;102123.84;5032748;28;20057;-88
2023/10/16 06:36:23;;;;;;;5.85;2.53;;;;;;;8.34;100.00;102128.75;5044308;28;20036;-88
2023/10/16 06:38:52;;;;;;;3.00;1.73;;;;;;;8.40;100.00;102128.59;5024765;28;20024;-87
2023/10/16 06:41:21;;;;;;;3.50;1.88;;;;;;;8.44;100.00;102133.19;5021256;28;20029;-87
2023/10/16 06:43:48;;;;;;;3.33;1.35;;;;;;;8.45;100.00;102134.00;5029044;28;20036;-87
2023/10/16 06:46:25;;;;;;;2.47;1.35;;;;;;;8.52;100.00;102134.34;5020460;28;20281;-87
2023/10/16 06:48:53;;;;;;;4.03;1.80;;;;;;;8.48;100.00;102147.31;5041609;28;20156;-87
2023/10/16 06:51:25;;;;;;;2.47;1.40;;;;;;;8.49;100.00;102151.72;5040226;28;20387;-87
2023/10/16 06:53:51;;;;;;;3.70;1.70;;;;;;;8.39;100.00;102141.72;5041977;28;20482;-87
2023/10/16 06:56:27;;;;;;;2.55;1.50;;;;;;;8.56;100.00;102152.06;5023253;28;20555;-87
2023/10/16 06:58:54;;;;;;;6.30;1.88;;;;;;;8.48;100.00;102155.69;5026220;28;20033;-87
2023/10/16 07:01:19;;;;;;;2.70;1.48;;;;;;;8.51;100.00;102155.00;5024665;28;20092;-86
2023/10/16 07:03:47;;;;;;;3.95;1.88;;;;;;;8.49;100.00;102162.88;5026030;28;20048;-87
2023/10/16 07:06:14;;;;;;;2.85;2.00;;;;;;;8.41;100.00;102146.97;5020963;28;20434;-87
2023/10/16 07:08:40;;;;;;;2.22;1.40;;;;;;;8.43;100.00;102141.91;5042541;28;20040;-87
2023/10/16 07:11:11;;;;;;;5.30;1.55;;;;;;;8.52;100.00;102153.88;5023650;28;20115;-87
2023/10/16 07:13:38;;;;;;;3.70;1.83;;;;;;;8.43;100.00;102136.31;5026263;28;20025;-87
2023/10/16 07:16:05;;;;;;;3.88;1.85;;;;;;;8.44;100.00;102149.13;5041602;28;20051;-86
2023/10/16 07:18:33;;;;;;;3.70;1.83;;;;;;;8.50;100.00;102154.19;5041045;28;20561;-87
2023/10/16 07:20:59;;;;;;;3.80;1.42;;;;;;;8.55;100.00;102150.41;5023931;28;20037;-87
2023/10/16 07:23:29;;;;;;;5.85;1.85;;;;;;;8.56;100.00;102143.69;5025187;28;20030;-87
2023/10/16 07:25:58;;;;;;;5.13;2.00;;;;;;;8.52;100.00;102145.50;5024525;28;20067;-87
2023/10/16 07:28:26;;;;;;;4.63;1.80;;;;;;;8.62;100.00;102149.88;5038337;28;20035;-87
2023/10/16 07:30:51;;;;;;;3.15;1.50;;;;;;;8.67;100.00;102150.53;5027728;28;20028;-87
2023/10/16 07:33:17;;;;;;;4.75;2.03;;;;;;;8.71;100.00;102143.13;5027813;28;20512;-87
2023/10/16 07:35:45;;;;;;;2.53;1.95;;;;;;;8.69;100.00;102151.00;5045595;28;20032;-86
2023/10/16 07:38:25;;;;;;;2.85;2.10;;;;;;;8.58;100.00;102160.06;5018189;28;20148;-87
2023/10/16 07:40:53;;;;;;;4.68;1.50;;;;;;;8.67;100.00;102158.91;5024865;28;20032;-87
2023/10/16 07:43:26;;;;;;;5.70;1.70;;;;;;;8.70;100.00;102149.03;5037074;28;20060;-87
2023/10/16 07:48:34;;;;;;;1.88;1.70;;;;;;;8.72;100.00;102167.06;5042678;28;20558;-87
2023/10/16 07:51:01;;;;;;;5.13;2.25;;;;;;;8.71;100.00;102162.66;5022916;28;20055;-87
2023/10/16 07:53:28;;;;;;;2.58;1.83;;;;;;;8.69;100.00;102156.59;5022190;28;20101;-87
2023/10/16 07:55:55;;;;;;;3.75;1.92;;;;;;;8.80;100.00;102162.63;5036984;28;20068;-88
2023/10/16 07:58:23;;;;;;;4.70;2.08;;;;;;;8.80;100.00;102172.97;5026020;28;20533;-87
2023/10/16 08:03:37;;;;;;;2.38;1.58;;;;;;;8.80;100.00;102176.59;5037721;28;20495;-87
2023/10/16 08:06:05;;;;;;;6.40;2.60;;;;;;;8.72;100.00;102171.84;5040330;28;20029;-87
2023/10/16 08:08:36;;;;;;;4.55;1.63;;;;;;;8.83;100.00;102172.31;5044870;28;20037;-87
2023/10/16 08:11:18;;;;;;;5.25;1.98;;;;;;;8.87;100.00;102178.84;5034427;28;20029;-87
2023/10/16 08:13:48;;;;;;;4.07;1.97;;;;;;;8.91;100.00;102175.06;5018491;28;20033;-87
2023/10/16 08:16:18;;;;;;;4.40;2.25;;;;;;;8.95;100.00;102169.63;5020640;28;20277;-87
2023/10/16 08:18:48;;;;;;;5.10;2.10;;;;;;;8.91;100.00;102168.66;5029709;28;20119;-87
2023/10/16 08:21:24;;;;;;;4.13;2.88;;;;;;;8.89;100.00;102188.53;5018511;28;20070;-87
2023/10/16 08:23:53;;;;;;;4.80;2.10;;;;;;;8.96;100.00;102176.88;5021236;28;20028;-87
2023/10/16 08:26:28;;;;;;;2.50;2.08;;;;;;;9.08;100.00;102185.31;5027264;28;20040;-86
2023/10/16 08:31:42;;;;;;;9.82;2.80;;;;;;;9.10;100.00;102182.22;5039300;28;20041;-87
2023/10/16 08:34:12;;;;;;;4.20;1.92;;;;;;;9.13;100.00;102185.16;5039688;28;20124;-87
2023/10/16 08:36:38;;;;;;;3.50;1.80;;;;;;;9.13;100.00;102182.38;5018498;28;20604;-87
2023/10/16 08:39:14;;;;;;;6.20;2.20;;;;;;;9.18;100.00;102183.34;5022038;28;20065;-87
2023/10/16 08:41:42;;;;;;;4.22;2.08;;;;;;;9.15;100.00;102182.84;5035285;28;20045;-87
2023/10/16 08:44:15;;;;;;;2.40;1.75;;;;;;;9.29;100.00;102190.16;5039114;28;20142;-87
2023/10/16 08:49:22;;;;;;;3.88;2.00;;;;;;;9.34;100.00;102196.38;5043015;28;20048;-87
2023/10/16 08:51:54;;;;;;;5.88;2.13;;;;;;;9.31;100.00;102185.88;5024393;28;20033;-87
2023/10/16 08:57:07;;;;;;;4.28;3.35;;;;;;;9.42;100.00;102189.09;5035747;28;20296;-87
2023/10/16 08:59:34;;;;;;;6.90;2.85;;;;;;;9.45;100.00;102196.00;5043770;28;20333;-86
2023/10/16 09:02:01;;;;;;;4.45;1.70;;;;;;;9.57;100.00;102191.31;5031471;28;20071;-87
2023/10/16 09:04:27;;;;;;;3.10;1.80;;;;;;;9.48;100.00;102179.34;5042085;28;20025;-87
2023/10/16 09:06:53;;;;;;;3.25;1.75;;;;;;;9.60;100.00;102191.78;5019548;28;20372;-87
2023/10/16 09:09:20;;;;;;;5.55;2.00;;;;;;;9.53;100.00;102192.34;5026795;28;20037;-87
2023/10/16 09:11:47;;;;;;;3.95;1.83;;;;;;;9.64;100.00;102189.97;5041249;28;20025;-87
2023/10/16 09:14:17;;;;;;;4.13;2.00;;;;;;;9.71;100.00;102193.03;5028481;28;20055;-86
2023/10/16 09:16:45;;;;;;;3.38;1.95;;;;;;;9.80;100.00;102199.38;5028502;28;20111;-87
2023/10/16 09:19:14;;;;;;;10.52;2.35;;;;;;;9.76;100.00;102192.81;5042704;28;20454;-87
2023/10/16 09:21:43;;;;;;;6.75;2.17;;;;;;;9.84;100.00;102182.72;5018668;28;20055;-86
2023/10/16 09:24:12;;;;;;;1.80;1.17;;;;;;;9.87;100.00;102177.28;5037061;28;20441;-87
2023/10/16 09:26:44;;;;;;;4.47;1.83;;;;;;;9.83;100.00;102181.91;5043247;28;20040;-87
2023/10/16 09:29:20;;;;;;;2.80;1.67;;;;;;;9.88;100.00;102190.09;5038397;28;20036;-86
2023/10/16 09:31:46;;;;;;;6.03;2.05;;;;;;;10.01;100.00;102198.56;5026702;28;20037;-86
2023/10/16 09:34:18;;;;;;;6.55;1.80;;;;;;;10.00;100.00;102194.13;5017113;28;20033;-87
2023/10/16 09:39:49;;;;;;;2.38;1.73;;;;;;;10.11;100.00;102198.13;5037666;28;20501;-87
2023/10/16 09:42:15;;;;;;;5.07;1.92;;;;;;;10.16;100.00;102201.56;5023804;28;20037;-87
2023/10/16 09:44:44;;;;;;;5.32;1.60;;;;;;;10.15;100.00;102193.50;5022162;28;20029;-87
2023/10/16 09:47:27;;;;;;;8.00;2.53;;;;;;;10.19;100.00;102194.44;5026050;28;20043;-86
2023/10/16 09:50:16;;;;;;;4.75;1.58;;;;;;;10.33;100.00;102195.00;5018448;28;20074;-87
2023/10/16 09:52:45;;;;;;;4.80;3.08;;;;;;;10.37;100.00;102200.72;5019573;28;20025;-87
2023/10/16 09:55:12;;;;;;;7.40;1.70;;;;;;;10.42;100.00;102191.31;5015236;28;20115;-86
2023/10/16 09:57:49;;;;;;;6.50;1.92;;;;;;;10.34;100.00;102188.22;5023688;28;20112;-87
2023/10/16 10:03:02;;;;;;;4.40;1.48;;;;;;;10.57;100.00;102190.66;5027809;28;20059;-87
2023/10/16 10:05:41;;;;;;;2.42;1.48;;;;;;;10.49;100.00;102181.16;5015589;28;20457;-88
2023/10/16 10:08:18;;;;;;;5.22;1.13;;;;;;;10.53;100.00;102181.31;5023388;28;20549;-87
2023/10/16 10:13:34;;;;;;;2.97;1.27;;;;;;;10.57;100.00;102182.25;5018923;28;20115;-88
2023/10/16 10:16:10;;;;;;;2.42;1.20;;;;;;;10.60;100.00;102181.53;5018846;28;20042;-87
2023/10/16 10:18:45;;;;;;;3.45;0.90;;;;;;;10.63;100.00;102183.66;5018413;28;20022;-88
2023/10/16 10:21:28;;;;;;;6.57;1.25;;;;;;;10.59;100.00;102177.13;5018947;28;20026;-87
2023/10/16 10:24:00;;;;;;;3.08;0.98;;;;;;;10.96;100.00;102185.56;5020860;28;20032;-87
2023/10/16 10:26:26;;;;;;;5.40;1.20;;;;;;;11.14;100.00;102195.41;5010545;28;20121;-87
2023/10/16 10:29:11;;;;;;;4.03;0.85;;;;;;;11.00;100.00;102192.13;5021961;28;20068;-87
2023/10/16 10:31:41;;;;;;;4.18;1.05;;;;;;;10.84;100.00;102174.38;5026230;28;20029;-87
2023/10/16 10:34:28;;;;;;;4.32;1.10;;;;;;;10.97;100.00;102184.41;5023997;28;20205;-87
2023/10/16 10:36:54;;;;;;;3.15;1.13;;;;;;;11.22;100.00;102179.66;5027024;28;20033;-87
2023/10/16 10:39:38;;;;;;;3.65;1.30;;;;;;;11.27;100.00;102187.00;5026178;28;20614;-87
2023/10/16 10:42:16;;;;;;;7.53;2.17;;;;;;;11.16;100.00;102181.03;5024768;28;20021;-87
2023/10/16 10:45:17;;;;;;;4.97;1.50;;;;;;;11.19;100.00;102189.56;5026649;28;20057;-87
2023/10/16 10:47:43;;;;;;;1.75;0.80;;;;;;;11.17;100.00;102175.09;5023118;28;20037;-87
2023/10/16 10:50:14;;;;;;;4.35;0.88;;;;;;;11.33;100.00;102188.41;5042867;28;20388;-87
2023/10/16 10:52:40;;;;;;;4.43;1.20;;;;;;;11.41;100.00;102186.66;5040158;28;20509;-87
2023/10/16 10:55:14;;;;;;;2.90;1.30;;;;;;;11.42;100.00;102172.25;5029407;28;20033;-87
2023/10/16 10:57:47;;;;;;;4.63;1.48;;;;;;;11.37;100.00;102181.72;5024311;28;20039;-87
2023/10/16 11:00:22;;;;;;;5.10;2.08;;;;;;;11.35;100.00;102183.25;5041057;28;20033;-87
2023/10/16 11:05:25;;;;;;;4.68;1.50;;;;;;;11.57;100.00;102182.78;5039494;28;20108;-87
2023/10/16 11:08:35;;;;;;;6.00;1.10;;;;;;;11.44;100.00;102178.31;5040637;28;20041;-87
2023/10/16 11:10:52;;;;;;;5.28;1.20;;;;;;;11.38;100.00;102176.94;5035803;28;20407;-87
2023/10/16 11:13:21;;;;;;;6.53;0.95;;;;;;;11.43;100.00;102176.72;5025748;28;20032;-87
2023/10/16 11:15:53;;;;;;;2.95;1.08;;;;;;;11.48;100.00;102176.47;5040762;28;20029;-87
2023/10/16 11:18:20;;;;;;;1.73;1.38;;;;;;;11.57;100.00;102168.75;5021805;28;20037;-87
2023/10/16 11:20:48;;;;;;;2.17;0.93;;;;;;;11.76;100.00;102178.50;5024187;28;20041;-87
2023/10/16 11:23:15;;;;;;;2.92;0.90;;;;;;;11.80;100.00;102173.81;5037190;28;20441;-87
2023/10/16 11:25:50;;;;;;;3.45;0.77;;;;;;;11.85;100.00;102167.97;5024777;28;20041;-87
2023/10/16 11:28:20;;;;;;;0.98;0.68;;;;;;;11.60;100.00;102151.19;5023516;28;20043;-87
2023/10/16 11:30:47;;;;;;;6.03;1.63;;;;;;;11.70;100.00;102154.69;5025191;28;20094;-87
2023/10/16 11:33:12;;;;;;;1.95;0.80;;;;;;;11.78;100.00;102148.94;5020019;28;20046;-87
2023/10/16 11:35:43;;;;;;;2.75;0.73;;;;;;;11.75;100.00;102135.63;5026281;28;20491;-87
2023/10/16 11:38:13;;;;;;;2.95;1.00;;;;;;;11.84;100.00;102157.09;5018848;28;20040;-87
2023/10/16 11:40:39;;;;;;;2.17;0.90;;;;;;;11.83;100.00;102153.50;5018738;28;20037;-87
2023/10/16 11:43:31;;;;;;;7.05;1.50;;;;;;;11.68;100.00;102148.59;5018490;28;20025;-87
2023/10/16 11:45:56;;;;;;;1.50;0.85;;;;;;;11.62;100.00;102152.84;5040134;28;20044;-87
2023/10/16 11:50:51;;;;;;;4.97;0.70;;;;;;;11.66;100.00;102159.34;5035032;28;20083;-86
2023/10/16 11:53:23;;;;;;;2.55;1.23;;;;;;;11.56;100.00;102149.47;5023274;28;20477;-86
2023/10/16 11:55:52;;;;;;;2.80;0.73;;;;;;;11.42;100.00;102149.81;5021023;28;20035;-87
2023/10/16 11:58:17;;;;;;;1.83;0.80;;;;;;;11.44;100.00;102153.09;5026362;28;20033;-86
2023/10/16 12:01:09;;;;;;;2.42;1.10;;;;;;;11.44;100.00;102153.09;5017677;28;20017;-87
2023/10/16 12:03:39;;;;;;;2.97;1.05;;;;;;;11.42;100.00;102147.03;5041953;28;20032;-87
2023/10/16 12:06:14;;;;;;;2.90;1.02;;;;;;;11.37;100.00;102145.28;5038757;28;20475;-87
2023/10/16 12:08:41;;;;;;;7.05;1.10;;;;;;;11.42;100.00;102138.63;5022674;28;20457;-87
2023/10/16 12:11:07;;;;;;;1.20;0.98;;;;;;;11.38;100.00;102143.28;5024718;28;20455;-87
2023/10/16 12:13:33;;;;;;;9.98;1.35;;;;;;;11.48;100.00;102142.81;5027216;28;20043;-85
2023/10/16 12:15:59;;;;;;;5.18;1.33;;;;;;;11.42;100.00;102132.19;5026801;28;20033;-86
2023/10/16 12:18:28;;;;;;;2.63;0.82;;;;;;;11.39;100.00;102133.72;5038188;28;20040;-86
2023/10/16 12:20:57;;;;;;;3.65;0.90;;;;;;;11.41;100.00;102141.78;5020342;28;20022;-86
2023/10/16 12:23:23;;;;;;;3.03;0.55;;;;;;;11.47;100.00;102135.59;5037809;28;20104;-86
2023/10/16 12:25:49;;;;;;;3.15;0.98;;;;;;;11.50;100.00;102140.47;5044294;28;20795;-86
2023/10/16 12:28:14;;;;;;;1.80;0.50;;;;;;;11.59;100.00;102132.75;5025983;28;20063;-86
2023/10/16 12:30:40;;;;;;;3.25;0.90;;;;;;;11.58;100.00;102130.31;5037637;28;20026;-86
2023/10/16 12:33:06;;;;;;;3.08;1.00;;;;;;;11.56;100.00;102127.03;5029764;28;20039;-86
2023/10/16 12:35:34;;;;;;;5.28;1.50;;;;;;;11.67;100.00;102124.53;5033060;28;20101;-86
2023/10/16 12:38:05;;;;;;;2.20;0.90;;;;;;;11.71;100.00;102111.44;5048653;28;20032;-86
2023/10/16 12:40:40;;;;;;;5.53;0.90;;;;;;;11.90;100.00;102108.81;5024618;28;20029;-86
2023/10/16 12:43:09;;;;;;;3.15;0.80;;;;;;;11.89;100.00;102123.19;5028267;28;20040;-86
2023/10/16 12:45:37;;;;;;;3.10;0.93;;;;;;;11.97;100.00;102123.06;5035691;28;20529;-86
2023/10/16 12:48:03;;;;;;;2.13;0.80;;;;;;;11.90;100.00;102114.44;5024178;28;20086;-86
2023/10/16 12:50:29;;;;;;;3.13;0.93;;;;;;;11.98;100.00;102109.84;5038925;28;20033;-86
2023/10/16 12:52:56;;;;;;;5.70;1.40;;;;;;;11.93;96.52;102108.13;5031690;28;20040;-86
2023/10/16 12:55:23;;;;;;;3.17;1.13;;;;;;;12.00;95.86;102111.13;5012072;28;20471;-86
2023/10/16 12:57:53;;;;;;;1.25;0.65;;;;;;;11.98;95.27;102098.63;5022796;28;20457;-86
2023/10/16 13:00:20;;;;;;;5.15;0.80;;;;;;;11.90;96.62;102096.78;5021765;28;20026;-86
2023/10/16 13:02:48;;;;;;;3.80;0.80;;;;;;;11.93;98.98;102110.94;5021263;28;20029;-85
2023/10/16 13:05:24;;;;;;;1.25;0.73;;;;;;;11.95;98.91;102117.00;5022447;28;20053;-86
2023/10/16 13:07:50;;;;;;;1.77;0.95;;;;;;;12.06;100.00;102116.47;5022861;28;20029;-86
2023/10/16 13:10:20;;;;;;;3.72;1.10;;;;;;;11.94;97.63;102108.94;5021699;28;20032;-87
2023/10/16 13:12:46;;;;;;;2.97;0.93;;;;;;;11.91;97.69;102104.88;5019737;28;20041;-86
2023/10/16 13:15:24;;;;;;;1.77;0.80;;;;;;;12.00;99.13;102119.53;5022099;28;20040;-86
2023/10/16 13:17:50;;;;;;;8.57;1.33;;;;;;;11.91;91.41;102110.47;5022189;28;20090;-86
2023/10/16 13:20:19;;;;;;;2.25;1.00;;;;;;;11.99;93.74;102117.94;5016606;28;20041;-86
2023/10/16 13:22:49;;;;;;;3.70;1.17;;;;;;;12.12;96.40;102115.03;5033759;28;20079;-83
2023/10/16 13:25:16;;;;;;;4.47;1.13;;;;;;;12.08;94.25;102108.50;5023741;28;20148;-84
2023/10/16 13:27:43;;;;;;;4.07;0.93;;;;;;;12.20;97.14;102100.03;5019485;28;20037;-83
2023/10/16 13:30:11;;;;;;;3.42;1.20;;;;;;;12.22;96.02;102113.72;5019960;28;20446;-83